Tongaat, South Africa
Current Conditions -  °F | °C
As of 7:00 PM on Thursday 23 Oct 2014 (Local Time) from FALE Reporting Station
Broken Clouds Broken Clouds  
Wind Chill: 70°   Ceiling: 1700
Heat Index: 70°   Visibility: 6mi
Dew Point: 63°   Wind: 16mph
Humidity: 78%   Direction: 50°NE
Pressure: 29.94"   Gusts: NA
Location:  29.58°S, 31.12°E
Report Text: FALE 231700Z 05014KT 9999 BKN017 21/17 Q1014 NOSIG
Loading
Personal Weather Stations






























Interactive Weather Map
Tropical Storm Tracking
New forecast layout! Learn more

10-Day Weather Forecast

Advertisements
Track Severe Weather on mobile